Time;durP1;ratioP1;P1;durP2;ratioP2;P2;SDS_P1;SDS_P2;PMS_P1;PMS_P2;Temp;Humidity;BMP_temperature;BMP_pressure;BME280_temperature;BME280_humidity;BME280_pressure;Samples;Min_cycle;Max_cycle;Signal;HPM_P1;HPM_P2
2022/01/20 00:02:09;;;;;;;19.65;1.85;;;4.10;99.90;;;;;;5064532;28;20398;-66
2022/01/20 00:04:47;;;;;;;17.95;2.83;;;4.00;99.90;;;;;;5064299;28;20115;-66
2022/01/20 00:07:31;;;;;;;13.80;2.13;;;3.90;99.90;;;;;;5066475;28;20037;-66
2022/01/20 00:26:18;;;;;;;12.90;1.77;;;3.70;99.90;;;;;;5059486;28;20040;-67
2022/01/20 00:28:48;;;;;;;18.85;1.75;;;3.70;99.90;;;;;;5057773;28;20824;-67
2022/01/20 00:34:18;;;;;;;17.90;1.40;;;3.80;99.90;;;;;;5001191;28;20046;-67
2022/01/20 00:39:29;;;;;;;10.68;1.35;;;3.80;99.90;;;;;;5067431;28;20071;-67
2022/01/20 00:41:55;;;;;;;13.70;1.60;;;3.80;99.90;;;;;;5060340;28;20108;-67
2022/01/20 00:44:22;;;;;;;17.63;1.83;;;3.70;99.90;;;;;;5063115;28;20885;-67
2022/01/20 00:46:48;;;;;;;18.42;1.98;;;3.70;99.90;;;;;;5063361;28;20052;-67
2022/01/20 00:49:14;;;;;;;12.05;1.42;;;3.60;99.90;;;;;;5061953;28;20041;-67
2022/01/20 00:51:40;;;;;;;13.52;2.22;;;3.50;99.90;;;;;;5062033;28;20387;-67
2022/01/20 00:54:05;;;;;;;15.98;1.90;;;3.50;99.90;;;;;;5063956;28;20037;-67
2022/01/20 00:56:31;;;;;;;16.80;1.85;;;3.50;99.90;;;;;;5061082;28;20037;-67
2022/01/20 00:58:57;;;;;;;13.45;1.70;;;3.40;99.90;;;;;;5062947;28;20655;-67
2022/01/20 01:01:26;;;;;;;14.77;1.73;;;3.30;99.90;;;;;;5067461;28;20052;-67
2022/01/20 01:03:51;;;;;;;13.88;1.42;;;3.30;99.90;;;;;;5062367;28;20539;-67
2022/01/20 01:08:55;;;;;;;13.88;1.80;;;3.30;99.90;;;;;;5065377;28;20048;-67
2022/01/20 01:11:22;;;;;;;10.75;1.27;;;3.20;99.90;;;;;;5065671;28;20578;-67
2022/01/20 01:13:49;;;;;;;16.70;1.95;;;3.20;99.90;;;;;;5067066;28;20463;-67
2022/01/20 01:16:17;;;;;;;15.35;1.98;;;3.20;99.90;;;;;;5067210;28;20029;-67
2022/01/20 01:21:30;;;;;;;13.30;1.33;;;3.20;99.90;;;;;;5065803;28;20062;-66
2022/01/20 01:23:56;;;;;;;11.23;1.88;;;3.30;99.90;;;;;;5063255;28;20309;-67
2022/01/20 01:26:25;;;;;;;12.75;1.60;;;3.30;99.90;;;;;;5066332;28;20041;-67
2022/01/20 01:28:52;;;;;;;13.40;1.48;;;3.30;99.90;;;;;;5062596;28;20486;-67
2022/01/20 01:31:32;;;;;;;13.27;1.63;;;3.30;99.90;;;;;;5068826;28;20101;-67
2022/01/20 01:34:02;;;;;;;16.30;1.75;;;3.30;99.90;;;;;;5063751;28;20051;-67
2022/01/20 01:36:33;;;;;;;14.85;2.25;;;3.40;99.90;;;;;;5070140;28;20105;-67
2022/01/20 01:38:58;;;;;;;13.98;1.67;;;3.40;99.90;;;;;;5067218;28;20124;-67
2022/01/20 01:41:35;;;;;;;16.23;1.98;;;3.50;99.90;;;;;;5066366;28;20690;-67
2022/01/20 01:44:06;;;;;;;9.23;1.25;;;3.50;99.90;;;;;;5065378;28;20048;-67
2022/01/20 01:46:32;;;;;;;9.68;1.42;;;3.50;99.90;;;;;;5063269;28;20553;-67
2022/01/20 01:48:58;;;;;;;11.93;1.55;;;3.60;99.90;;;;;;5065034;28;20040;-67
2022/01/20 01:51:24;;;;;;;9.50;1.00;;;3.50;99.90;;;;;;5071684;28;20055;-67
2022/01/20 01:53:50;;;;;;;11.98;1.90;;;3.60;99.90;;;;;;5065016;28;20045;-67
2022/01/20 01:56:16;;;;;;;12.35;1.13;;;3.70;99.90;;;;;;5063604;28;20461;-67
2022/01/20 01:58:42;;;;;;;7.00;0.90;;;3.80;99.90;;;;;;5067695;28;20572;-67
2022/01/20 02:01:08;;;;;;;9.93;0.80;;;3.80;99.90;;;;;;5059488;28;20097;-67
2022/01/20 02:03:43;;;;;;;9.82;1.13;;;3.90;99.90;;;;;;5066761;28;20518;-67
2022/01/20 02:19:54;;;;;;;8.30;0.80;;;3.90;99.90;;;;;;5062687;28;20453;-67
2022/01/20 02:22:20;;;;;;;5.70;0.60;;;3.90;99.90;;;;;;5065926;28;20041;-67
2022/01/20 02:24:45;;;;;;;8.50;0.90;;;3.90;99.90;;;;;;5063556;28;20119;-67
2022/01/20 02:27:11;;;;;;;7.60;0.85;;;3.90;99.90;;;;;;5065507;28;20089;-67
2022/01/20 02:29:37;;;;;;;9.65;0.82;;;3.90;99.90;;;;;;5063336;28;20131;-67
2022/01/20 02:32:03;;;;;;;4.60;0.60;;;3.90;99.90;;;;;;5068158;28;20036;-67
2022/01/20 02:34:30;;;;;;;8.63;0.77;;;4.00;99.90;;;;;;5065880;28;20037;-67
2022/01/20 02:36:58;;;;;;;12.75;1.25;;;4.00;99.90;;;;;;5060711;28;20552;-67
2022/01/20 02:47:31;;;;;;;9.27;1.02;;;4.10;99.90;;;;;;5052237;28;20045;-66
2022/01/20 02:49:57;;;;;;;8.75;1.13;;;4.10;99.90;;;;;;5063077;28;20045;-67
2022/01/20 02:52:24;;;;;;;7.88;0.80;;;4.10;99.90;;;;;;5062738;28;20074;-67
2022/01/20 02:54:51;;;;;;;13.02;1.20;;;4.10;99.90;;;;;;5065927;28;20123;-67
2022/01/20 02:57:17;;;;;;;7.88;1.00;;;4.10;99.90;;;;;;5064118;28;20083;-66
2022/01/20 02:59:43;;;;;;;9.05;1.58;;;4.20;99.90;;;;;;5064741;28;20032;-66
2022/01/20 03:02:09;;;;;;;12.35;1.45;;;4.10;99.90;;;;;;5061685;28;20036;-66
2022/01/20 03:04:36;;;;;;;10.23;1.13;;;4.10;99.90;;;;;;5064084;28;20041;-66
2022/01/20 03:07:03;;;;;;;10.60;1.33;;;4.00;99.90;;;;;;5064580;28;20469;-66
2022/01/20 03:09:29;;;;;;;13.10;1.75;;;4.00;99.90;;;;;;5062217;28;20537;-66
2022/01/20 03:11:55;;;;;;;10.52;1.50;;;4.00;99.90;;;;;;5065590;28;20036;-66
2022/01/20 03:14:21;;;;;;;12.80;2.03;;;4.00;99.90;;;;;;5071527;28;20532;-66
2022/01/20 03:16:49;;;;;;;12.52;2.15;;;4.00;99.90;;;;;;5060445;28;20040;-66
2022/01/20 03:19:15;;;;;;;12.07;1.70;;;3.90;99.90;;;;;;5066095;28;20041;-66
2022/01/20 03:21:42;;;;;;;11.82;1.80;;;3.90;99.90;;;;;;5064737;28;20049;-66
2022/01/20 03:24:08;;;;;;;14.55;1.70;;;3.90;99.90;;;;;;5059113;28;20125;-66
2022/01/20 03:26:34;;;;;;;17.15;2.33;;;3.90;99.90;;;;;;5070098;28;20032;-65
2022/01/20 03:29:00;;;;;;;16.88;2.00;;;3.90;99.90;;;;;;5064135;28;20097;-65
2022/01/20 03:31:27;;;;;;;18.50;3.33;;;3.80;99.90;;;;;;5063822;28;20040;-65
2022/01/20 03:33:53;;;;;;;17.83;2.47;;;3.90;99.90;;;;;;5062919;28;20094;-65
2022/01/20 03:36:18;;;;;;;15.45;2.25;;;3.90;99.90;;;;;;5062337;28;20036;-65
2022/01/20 03:38:45;;;;;;;16.85;2.70;;;3.90;99.90;;;;;;5060110;28;20040;-66
2022/01/20 03:41:11;;;;;;;16.75;2.25;;;3.90;99.90;;;;;;5061795;28;20040;-66
2022/01/20 03:43:37;;;;;;;21.92;2.50;;;3.90;99.90;;;;;;5047629;28;20057;-66
2022/01/20 03:46:06;;;;;;;18.98;2.97;;;3.90;99.90;;;;;;5077900;28;20494;-66
2022/01/20 03:48:38;;;;;;;16.77;2.60;;;3.90;99.90;;;;;;5060982;28;20086;-66
2022/01/20 03:51:04;;;;;;;17.08;3.10;;;3.90;99.90;;;;;;5065204;28;20146;-65
2022/01/20 03:53:36;;;;;;;16.75;2.97;;;3.90;99.90;;;;;;5066094;28;20040;-65
2022/01/20 03:56:02;;;;;;;22.20;4.35;;;3.90;99.90;;;;;;5068766;28;20032;-65
2022/01/20 03:58:28;;;;;;;20.88;3.55;;;3.90;99.90;;;;;;5064807;28;20477;-66
2022/01/20 04:00:53;;;;;;;15.35;2.65;;;4.00;99.90;;;;;;5062566;28;20063;-65
2022/01/20 04:03:20;;;;;;;24.10;3.13;;;3.90;99.90;;;;;;5061394;28;20063;-66
2022/01/20 04:08:20;;;;;;;17.23;3.17;;;3.90;99.90;;;;;;5063779;28;20068;-66
2022/01/20 04:10:46;;;;;;;24.48;3.42;;;3.90;99.90;;;;;;5059147;28;22401;-66
2022/01/20 04:13:11;;;;;;;23.40;3.38;;;4.00;99.90;;;;;;5061470;28;20037;-66
2022/01/20 04:15:39;;;;;;;17.17;3.55;;;3.90;99.90;;;;;;5061480;28;20397;-66
2022/01/20 04:18:11;;;;;;;15.32;3.28;;;3.80;99.90;;;;;;5062259;28;20098;-65
2022/01/20 04:20:36;;;;;;;23.23;3.08;;;3.80;99.90;;;;;;5063135;28;20052;-65
2022/01/20 04:23:02;;;;;;;19.15;3.30;;;3.80;99.90;;;;;;5062472;28;20382;-66
2022/01/20 04:25:28;;;;;;;21.33;3.45;;;3.80;99.90;;;;;;5059248;28;20033;-66
2022/01/20 04:27:54;;;;;;;18.38;3.05;;;3.70;99.90;;;;;;5062572;28;20098;-66
2022/01/20 04:30:20;;;;;;;18.20;2.58;;;3.80;99.90;;;;;;5065104;28;20040;-67
2022/01/20 04:32:46;;;;;;;19.60;3.15;;;3.80;99.90;;;;;;5062058;28;20228;-66
2022/01/20 04:35:11;;;;;;;20.90;2.45;;;3.80;99.90;;;;;;5063042;28;20163;-66
2022/01/20 04:37:37;;;;;;;19.90;2.75;;;3.70;99.90;;;;;;5071432;28;20036;-66
2022/01/20 04:40:04;;;;;;;25.88;3.45;;;3.70;99.90;;;;;;5059175;28;20500;-66
2022/01/20 04:42:33;;;;;;;16.08;2.25;;;3.70;99.90;;;;;;5066904;28;20036;-67
2022/01/20 04:45:04;;;;;;;15.02;2.53;;;3.70;99.90;;;;;;5067938;28;21216;-67
2022/01/20 04:58:16;;;;;;;12.68;1.95;;;3.60;99.90;;;;;;5063585;28;20133;-66
2022/01/20 05:00:42;;;;;;;15.68;2.13;;;3.60;99.90;;;;;;5069100;28;20190;-66
2022/01/20 05:03:07;;;;;;;13.30;2.08;;;3.60;99.90;;;;;;5064897;28;20101;-66
2022/01/20 05:05:33;;;;;;;16.30;2.83;;;3.60;99.90;;;;;;5065985;28;20170;-66
2022/01/20 05:08:00;;;;;;;17.73;2.67;;;3.50;99.90;;;;;;5068220;28;20373;-66
2022/01/20 05:10:28;;;;;;;11.38;2.05;;;3.50;99.90;;;;;;5066040;28;20162;-66
2022/01/20 05:15:20;;;;;;;17.63;2.88;;;3.50;99.90;;;;;;5063408;28;20040;-66
2022/01/20 05:17:46;;;;;;;22.63;2.67;;;3.60;99.90;;;;;;5068386;28;20557;-66
2022/01/20 05:20:13;;;;;;;15.98;3.30;;;3.50;99.90;;;;;;5065356;28;20044;-66
2022/01/20 05:22:38;;;;;;;11.25;2.05;;;3.50;99.90;;;;;;5065915;28;20059;-66
2022/01/20 05:25:06;;;;;;;17.67;3.03;;;3.50;99.90;;;;;;5064669;28;20473;-66
2022/01/20 05:27:31;;;;;;;16.77;2.28;;;3.50;99.90;;;;;;5064487;28;20123;-66
2022/01/20 05:29:58;;;;;;;13.15;2.17;;;3.40;99.90;;;;;;5064480;28;20164;-66
2022/01/20 05:32:24;;;;;;;13.40;2.30;;;3.40;99.90;;;;;;5071378;28;20119;-66
2022/01/20 05:34:50;;;;;;;14.65;2.10;;;3.40;99.90;;;;;;5066632;28;20143;-66
2022/01/20 05:37:16;;;;;;;13.20;1.98;;;3.30;99.90;;;;;;5064613;28;20603;-66
2022/01/20 05:39:42;;;;;;;17.20;2.40;;;3.20;99.90;;;;;;5066991;28;20075;-66
2022/01/20 05:42:08;;;;;;;13.82;2.13;;;3.20;99.90;;;;;;5066861;28;20041;-66
2022/01/20 05:44:34;;;;;;;13.02;2.35;;;3.20;99.90;;;;;;5064042;28;20040;-66
2022/01/20 05:47:06;;;;;;;18.95;2.50;;;3.10;99.90;;;;;;5064180;28;20045;-66
2022/01/20 05:49:32;;;;;;;9.90;2.60;;;3.10;99.90;;;;;;5063133;28;20086;-66
2022/01/20 05:51:58;;;;;;;10.70;2.30;;;3.00;99.90;;;;;;5063040;28;20036;-66
2022/01/20 05:54:24;;;;;;;10.10;1.67;;;2.90;99.90;;;;;;5065399;28;20064;-66
2022/01/20 05:56:50;;;;;;;8.77;1.45;;;2.80;99.90;;;;;;5064720;28;20145;-66
2022/01/20 05:59:16;;;;;;;7.75;1.75;;;2.80;99.90;;;;;;5064097;28;20036;-66
2022/01/20 06:01:45;;;;;;;11.07;1.42;;;2.70;99.90;;;;;;5064691;28;20403;-66
2022/01/20 06:04:11;;;;;;;13.25;1.75;;;2.60;99.90;;;;;;5065734;28;20032;-65
2022/01/20 06:06:37;;;;;;;9.65;1.65;;;2.60;99.90;;;;;;5062356;28;20666;-65
2022/01/20 06:09:08;;;;;;;14.38;2.15;;;2.50;99.90;;;;;;5061850;28;20043;-65
2022/01/20 06:11:34;;;;;;;14.20;1.85;;;2.50;99.90;;;;;;5064088;28;20114;-66
2022/01/20 06:14:00;;;;;;;10.65;1.35;;;2.40;99.90;;;;;;5061365;28;20048;-66
2022/01/20 06:16:26;;;;;;;11.73;1.60;;;2.40;99.90;;;;;;5066323;28;20057;-66
2022/01/20 06:18:52;;;;;;;9.68;1.95;;;2.30;99.90;;;;;;5067781;28;20547;-66
2022/01/20 06:21:18;;;;;;;8.98;1.40;;;2.20;99.90;;;;;;5065343;28;20497;-66
2022/01/20 06:23:44;;;;;;;14.50;1.85;;;2.20;99.90;;;;;;5061314;28;20040;-66
2022/01/20 06:26:10;;;;;;;19.08;2.60;;;2.10;99.90;;;;;;5063470;28;20044;-66
2022/01/20 06:28:40;;;;;;;10.93;1.50;;;2.10;99.90;;;;;;5063945;28;20115;-66
2022/01/20 06:31:05;;;;;;;8.25;2.20;;;2.10;99.90;;;;;;5065515;28;20042;-66
2022/01/20 06:33:31;;;;;;;12.73;1.92;;;2.20;99.90;;;;;;5067936;28;20123;-66
2022/01/20 06:35:57;;;;;;;16.25;2.40;;;2.20;99.90;;;;;;5064535;28;20304;-66
2022/01/20 06:38:24;;;;;;;12.68;1.65;;;2.30;99.90;;;;;;5060674;28;20040;-66
2022/01/20 06:40:50;;;;;;;14.02;2.00;;;2.30;99.90;;;;;;5075855;28;20383;-65
2022/01/20 06:43:16;;;;;;;15.98;2.40;;;2.30;99.90;;;;;;5066145;28;20062;-66
2022/01/20 06:45:42;;;;;;;12.55;2.30;;;2.20;99.90;;;;;;5060383;28;20397;-65
2022/01/20 06:48:07;;;;;;;15.00;2.13;;;2.20;99.90;;;;;;5065463;28;20033;-65
2022/01/20 06:50:33;;;;;;;9.65;1.48;;;2.20;99.90;;;;;;5061705;28;20044;-65
2022/01/20 06:53:00;;;;;;;16.27;2.08;;;2.20;99.90;;;;;;5065591;28;20098;-65
2022/01/20 06:55:25;;;;;;;14.77;2.58;;;2.20;99.90;;;;;;5067616;28;20078;-66
2022/01/20 06:57:51;;;;;;;17.00;3.58;;;2.20;99.90;;;;;;5062419;28;20068;-65
2022/01/20 07:00:20;;;;;;;7.90;1.80;;;2.10;99.90;;;;;;5061754;28;20037;-65
2022/01/20 07:02:47;;;;;;;14.85;2.13;;;2.20;99.90;;;;;;5060803;28;20085;-65
2022/01/20 07:05:15;;;;;;;13.98;2.38;;;2.20;99.90;;;;;;5065989;28;20047;-65
2022/01/20 07:07:41;;;;;;;12.70;2.65;;;2.30;99.90;;;;;;5057823;28;20523;-65
2022/01/20 07:10:09;;;;;;;10.18;2.17;;;2.30;99.90;;;;;;5061288;28;20380;-66
2022/01/20 07:12:35;;;;;;;17.40;2.03;;;2.30;99.90;;;;;;5069110;28;20465;-65
2022/01/20 07:15:02;;;;;;;12.93;2.03;;;2.30;99.90;;;;;;5062960;28;20044;-66
2022/01/20 07:17:27;;;;;;;17.35;2.13;;;2.30;99.90;;;;;;5060679;28;20056;-65
2022/01/20 07:19:53;;;;;;;13.98;2.95;;;2.30;99.90;;;;;;5067749;28;20386;-65
2022/01/20 07:22:19;;;;;;;11.75;2.00;;;2.30;99.90;;;;;;5061159;28;20237;-65
2022/01/20 07:24:44;;;;;;;11.82;2.22;;;2.40;99.90;;;;;;5061407;28;20033;-65
2022/01/20 07:27:10;;;;;;;16.30;2.83;;;2.40;99.90;;;;;;5054462;28;20041;-65
2022/01/20 07:29:36;;;;;;;19.05;2.60;;;2.40;99.90;;;;;;5062352;28;20037;-65
2022/01/20 07:32:03;;;;;;;15.68;2.70;;;2.40;99.90;;;;;;5061091;28;20043;-65
2022/01/20 07:34:33;;;;;;;18.60;2.60;;;2.50;99.90;;;;;;5062419;28;20033;-65
2022/01/20 07:37:00;;;;;;;13.43;2.70;;;2.50;99.90;;;;;;5062103;28;20440;-65
2022/01/20 07:39:26;;;;;;;15.60;3.05;;;2.40;99.90;;;;;;5061822;28;20508;-65
2022/01/20 07:41:52;;;;;;;17.42;3.25;;;2.40;99.90;;;;;;5055312;28;20466;-65
2022/01/20 07:44:19;;;;;;;13.55;2.75;;;2.40;99.90;;;;;;5059803;28;20057;-65
2022/01/20 07:46:46;;;;;;;17.30;2.80;;;2.40;99.90;;;;;;5058131;28;20044;-65
2022/01/20 07:49:12;;;;;;;18.15;2.30;;;2.50;99.90;;;;;;5059743;28;20156;-65
2022/01/20 07:51:38;;;;;;;15.48;2.60;;;2.40;99.90;;;;;;5063188;28;20044;-65
2022/01/20 07:54:04;;;;;;;16.15;2.25;;;2.40;99.90;;;;;;5056666;28;20051;-65
2022/01/20 07:56:30;;;;;;;14.70;2.83;;;2.40;99.90;;;;;;5064673;28;20048;-65
2022/01/20 07:58:56;;;;;;;19.05;3.80;;;2.30;99.90;;;;;;5057281;28;20107;-65
2022/01/20 08:01:24;;;;;;;17.05;2.40;;;2.20;99.90;;;;;;5060891;28;20032;-65
2022/01/20 08:03:51;;;;;;;11.13;2.45;;;2.20;99.90;;;;;;5056166;28;20045;-65
2022/01/20 08:06:17;;;;;;;18.13;2.20;;;2.10;99.90;;;;;;5065605;28;20074;-65
2022/01/20 08:08:43;;;;;;;17.40;2.00;;;2.10;99.90;;;;;;5059380;28;20711;-65
2022/01/20 08:11:09;;;;;;;13.10;2.08;;;2.00;99.90;;;;;;5061795;28;20453;-65
2022/01/20 08:13:34;;;;;;;19.67;2.80;;;2.10;99.90;;;;;;5058271;28;20040;-65
2022/01/20 08:16:00;;;;;;;10.77;2.03;;;2.20;99.90;;;;;;5061682;28;20045;-65
2022/01/20 08:18:26;;;;;;;17.35;2.95;;;2.40;99.90;;;;;;5062206;28;20060;-65
2022/01/20 08:20:51;;;;;;;15.88;2.47;;;2.80;99.90;;;;;;5063236;28;20484;-65
2022/01/20 08:23:17;;;;;;;15.35;2.72;;;3.10;99.90;;;;;;5044026;28;20118;-65
2022/01/20 08:25:43;;;;;;;19.60;2.63;;;3.10;99.90;;;;;;5059647;28;20472;-66
2022/01/20 08:28:08;;;;;;;16.23;2.80;;;3.20;99.90;;;;;;5063662;28;20040;-65
2022/01/20 08:30:34;;;;;;;19.17;3.38;;;3.20;99.90;;;;;;5062793;28;20527;-65
2022/01/20 08:33:00;;;;;;;18.05;2.88;;;3.20;99.90;;;;;;5062905;28;20054;-65
2022/01/20 08:35:31;;;;;;;14.95;2.67;;;3.10;99.90;;;;;;5061106;28;20513;-67
2022/01/20 08:37:59;;;;;;;17.48;2.60;;;3.10;99.90;;;;;;5062524;28;20037;-65
2022/01/20 08:40:26;;;;;;;20.23;3.35;;;3.00;99.90;;;;;;5061079;28;20048;-65
2022/01/20 08:42:53;;;;;;;22.85;3.30;;;2.90;99.90;;;;;;5055058;28;20036;-66
2022/01/20 08:45:22;;;;;;;12.18;2.58;;;2.90;99.90;;;;;;5061533;28;20045;-65
2022/01/20 08:47:54;;;;;;;14.88;3.25;;;3.00;99.90;;;;;;5061021;28;20835;-66
2022/01/20 08:50:20;;;;;;;19.95;2.67;;;3.10;99.90;;;;;;5065312;28;20056;-65
2022/01/20 08:52:46;;;;;;;14.80;2.58;;;3.10;99.90;;;;;;5053810;28;20075;-65
2022/01/20 08:55:13;;;;;;;10.10;1.88;;;3.10;99.90;;;;;;5057975;28;20101;-65
2022/01/20 08:57:39;;;;;;;14.20;2.13;;;3.10;99.90;;;;;;5059107;28;20036;-65
2022/01/20 09:00:06;;;;;;;15.63;2.92;;;3.10;99.90;;;;;;5053025;28;20056;-65
2022/01/20 09:02:32;;;;;;;21.73;2.47;;;3.10;99.90;;;;;;5060762;28;20044;-65
2022/01/20 09:04:59;;;;;;;16.05;3.35;;;3.00;99.90;;;;;;5064484;28;20045;-65
2022/01/20 09:07:25;;;;;;;13.98;1.88;;;2.90;99.90;;;;;;5056893;28;20041;-65
2022/01/20 09:09:53;;;;;;;12.63;2.22;;;2.80;99.90;;;;;;5082060;28;20369;-65
2022/01/20 09:15:27;;;;;;;10.50;2.08;;;2.40;99.90;;;;;;5062280;28;20123;-65
2022/01/20 09:17:54;;;;;;;11.73;1.83;;;2.20;99.90;;;;;;5058492;28;20128;-65
2022/01/20 09:20:20;;;;;;;11.75;1.83;;;2.10;99.90;;;;;;5068407;28;20078;-66
2022/01/20 09:22:48;;;;;;;17.08;2.33;;;2.00;99.90;;;;;;5060066;28;20111;-66
2022/01/20 09:25:15;;;;;;;14.60;2.10;;;2.00;99.90;;;;;;5065441;28;20089;-66
2022/01/20 09:27:41;;;;;;;10.13;1.80;;;2.00;99.90;;;;;;5061778;28;20045;-66
2022/01/20 09:30:08;;;;;;;9.00;1.55;;;2.00;99.90;;;;;;5067840;28;20067;-66
2022/01/20 09:32:37;;;;;;;10.45;2.30;;;2.10;99.90;;;;;;5051111;28;20044;-66
2022/01/20 09:35:03;;;;;;;11.68;2.00;;;2.10;99.90;;;;;;5064271;28;20105;-66
2022/01/20 09:37:29;;;;;;;16.60;2.20;;;2.20;99.90;;;;;;5065937;28;20044;-67
2022/01/20 09:39:56;;;;;;;13.32;2.20;;;2.30;99.90;;;;;;5065486;28;20119;-67
2022/01/20 09:42:24;;;;;;;9.23;1.90;;;2.40;99.90;;;;;;5067303;28;20058;-68
2022/01/20 09:44:52;;;;;;;15.32;2.63;;;2.50;99.90;;;;;;5069659;28;20041;-67
2022/01/20 09:47:19;;;;;;;12.20;2.00;;;2.60;99.90;;;;;;5065197;28;20081;-67
2022/01/20 09:49:45;;;;;;;15.68;2.30;;;2.90;99.90;;;;;;5059838;28;20036;-67
2022/01/20 09:52:11;;;;;;;15.48;2.75;;;2.90;99.90;;;;;;5064142;28;20033;-67
2022/01/20 09:54:38;;;;;;;12.38;1.95;;;2.80;99.90;;;;;;5064098;28;20078;-66
2022/01/20 09:57:04;;;;;;;10.57;1.70;;;2.60;99.90;;;;;;5063342;28;20048;-66
2022/01/20 09:59:31;;;;;;;11.20;1.75;;;2.50;99.90;;;;;;5060908;28;20069;-66
2022/01/20 10:01:58;;;;;;;20.35;2.80;;;2.40;99.90;;;;;;5059371;28;20044;-67
2022/01/20 10:04:29;;;;;;;16.50;2.30;;;2.40;99.90;;;;;;5061259;28;20370;-67
2022/01/20 10:07:01;;;;;;;16.83;2.45;;;2.40;99.90;;;;;;5061203;28;20824;-67
2022/01/20 10:09:27;;;;;;;11.13;1.75;;;2.50;99.90;;;;;;5069195;28;20064;-66
2022/01/20 10:11:53;;;;;;;12.05;1.63;;;2.50;99.90;;;;;;5064197;28;20076;-66
2022/01/20 10:14:19;;;;;;;15.32;2.15;;;2.50;99.90;;;;;;5065038;28;20049;-66
2022/01/20 10:16:44;;;;;;;13.85;2.17;;;2.60;99.90;;;;;;5062637;28;20139;-66
2022/01/20 10:19:20;;;;;;;12.45;2.55;;;2.60;99.90;;;;;;5066507;28;20056;-66
2022/01/20 10:21:46;;;;;;;13.25;2.35;;;2.60;99.90;;;;;;5066246;28;20079;-66
2022/01/20 10:24:13;;;;;;;10.27;1.70;;;2.80;99.90;;;;;;5063728;28;20072;-66
2022/01/20 10:26:40;;;;;;;17.48;2.05;;;3.00;99.90;;;;;;5058792;28;20072;-67
2022/01/20 10:29:12;;;;;;;10.45;2.05;;;3.20;99.90;;;;;;5077976;28;20472;-66
2022/01/20 10:31:44;;;;;;;10.82;2.15;;;3.40;99.90;;;;;;5066004;28;20052;-66
2022/01/20 10:34:30;;;;;;;10.82;2.22;;;3.50;99.90;;;;;;5058241;28;20033;-66
2022/01/20 10:37:09;;;;;;;10.63;2.13;;;3.60;99.90;;;;;;5060580;28;20110;-66
2022/01/20 10:39:37;;;;;;;16.67;2.83;;;3.60;99.90;;;;;;5068588;28;20032;-66
2022/01/20 10:42:06;;;;;;;10.98;1.73;;;3.50;99.90;;;;;;5064817;28;20047;-66
2022/01/20 10:44:50;;;;;;;9.77;1.38;;;3.40;99.90;;;;;;5065037;28;20110;-66
2022/01/20 10:47:19;;;;;;;6.43;1.00;;;3.10;99.90;;;;;;5053363;28;20036;-66
2022/01/20 10:49:46;;;;;;;7.35;1.38;;;2.90;99.90;;;;;;5064722;28;20044;-66
2022/01/20 10:52:14;;;;;;;6.03;1.08;;;2.70;99.90;;;;;;5065420;28;20542;-66
2022/01/20 10:54:49;;;;;;;7.80;1.10;;;2.70;99.90;;;;;;5064474;28;20484;-66
2022/01/20 10:57:16;;;;;;;11.32;1.45;;;2.70;99.90;;;;;;5065579;28;20097;-66
2022/01/20 10:59:57;;;;;;;10.68;1.08;;;2.70;99.90;;;;;;5071910;28;20421;-66
2022/01/20 11:02:29;;;;;;;6.57;0.70;;;2.70;99.90;;;;;;5069467;28;20387;-66
2022/01/20 11:04:58;;;;;;;5.55;0.85;;;2.80;99.90;;;;;;5064486;28;20373;-66
2022/01/20 11:07:25;;;;;;;12.25;1.85;;;2.90;99.90;;;;;;5064013;28;20090;-66
2022/01/20 11:10:00;;;;;;;10.57;1.33;;;3.00;99.90;;;;;;5065308;28;20484;-66
2022/01/20 11:12:26;;;;;;;7.80;0.95;;;3.00;99.90;;;;;;5058118;28;20045;-66
2022/01/20 11:14:53;;;;;;;10.27;1.20;;;3.20;99.90;;;;;;5063296;28;20056;-66
2022/01/20 11:17:30;;;;;;;6.65;1.10;;;3.30;99.90;;;;;;5060716;28;20262;-65
2022/01/20 11:20:02;;;;;;;10.07;1.60;;;3.50;99.90;;;;;;5066605;28;20043;-66
2022/01/20 11:22:28;;;;;;;9.68;1.63;;;3.60;99.90;;;;;;5063164;28;20109;-66
2022/01/20 11:24:59;;;;;;;5.50;1.60;;;3.70;99.90;;;;;;5053941;28;20052;-65
2022/01/20 11:27:45;;;;;;;10.45;1.40;;;3.80;99.90;;;;;;5061925;28;20338;-65
2022/01/20 11:30:19;;;;;;;15.98;2.17;;;3.90;99.90;;;;;;5065781;28;20040;-66
2022/01/20 11:32:58;;;;;;;10.82;2.33;;;3.90;99.90;;;;;;5060321;28;20044;-66
2022/01/20 11:35:49;;;;;;;8.90;1.25;;;3.80;99.90;;;;;;5064128;28;20036;-66
2022/01/20 11:38:18;;;;;;;11.25;2.03;;;3.90;99.90;;;;;;5062944;28;20080;-65
2022/01/20 11:41:00;;;;;;;9.27;1.30;;;3.80;99.90;;;;;;5063683;28;20121;-65
2022/01/20 11:43:52;;;;;;;13.20;1.73;;;3.80;99.90;;;;;;5063235;28;20477;-65
2022/01/20 11:46:23;;;;;;;9.88;1.48;;;3.70;99.90;;;;;;5066950;28;20038;-65
2022/01/20 11:49:06;;;;;;;14.85;2.35;;;3.60;99.90;;;;;;5068291;28;20041;-66
2022/01/20 11:51:54;;;;;;;11.23;1.65;;;3.60;99.90;;;;;;5061421;28;20048;-66
2022/01/20 11:54:33;;;;;;;8.07;1.05;;;3.60;99.90;;;;;;5061113;28;20052;-65
2022/01/20 11:57:20;;;;;;;12.82;1.60;;;3.60;99.90;;;;;;5058927;28;20134;-65
2022/01/20 11:59:55;;;;;;;14.27;1.95;;;3.80;99.90;;;;;;5065548;28;20040;-65
2022/01/20 12:02:24;;;;;;;14.40;1.75;;;3.90;99.90;;;;;;5060197;28;20036;-66
2022/01/20 12:04:51;;;;;;;13.23;2.40;;;4.00;99.90;;;;;;5065848;28;20087;-66
2022/01/20 12:07:32;;;;;;;9.25;1.55;;;4.20;99.90;;;;;;5060236;28;20107;-65
2022/01/20 12:10:26;;;;;;;14.73;2.50;;;4.40;99.90;;;;;;5052892;28;20230;-65
2022/01/20 12:12:53;;;;;;;13.55;2.05;;;4.50;99.90;;;;;;5056876;28;20049;-66
2022/01/20 12:15:22;;;;;;;14.63;2.38;;;4.50;99.90;;;;;;5066019;28;20037;-66
2022/01/20 12:17:50;;;;;;;15.07;2.05;;;4.50;99.90;;;;;;5062730;28;20080;-66
2022/01/20 12:20:15;;;;;;;17.10;2.65;;;4.30;99.90;;;;;;5065267;28;20048;-65
2022/01/20 12:22:42;;;;;;;13.77;2.30;;;4.10;99.90;;;;;;5062366;28;20053;-65
2022/01/20 12:25:15;;;;;;;11.90;2.90;;;3.90;99.90;;;;;;5062336;28;20143;-65
2022/01/20 12:27:42;;;;;;;18.73;2.53;;;3.80;99.90;;;;;;5059428;28;20045;-65
2022/01/20 12:30:29;;;;;;;14.60;1.92;;;3.80;99.90;;;;;;5060427;28;20053;-66
2022/01/20 12:33:18;;;;;;;15.98;2.65;;;3.80;99.90;;;;;;5061984;28;20056;-66
2022/01/20 12:35:52;;;;;;;10.77;2.63;;;4.00;99.90;;;;;;5069542;28;20081;-66
2022/01/20 12:38:28;;;;;;;13.77;2.00;;;4.10;99.90;;;;;;5062903;28;20044;-66
2022/01/20 12:41:04;;;;;;;18.25;2.85;;;4.20;99.90;;;;;;5064386;28;20162;-66
2022/01/20 12:43:56;;;;;;;13.18;2.40;;;4.20;99.90;;;;;;5063025;28;20043;-65
2022/01/20 12:46:26;;;;;;;15.65;2.00;;;4.20;99.90;;;;;;5053793;28;20119;-66
2022/01/20 12:49:04;;;;;;;10.95;2.25;;;4.20;99.90;;;;;;5062032;28;20333;-66
2022/01/20 12:51:53;;;;;;;12.73;2.08;;;4.20;99.90;;;;;;5057181;28;20044;-66
2022/01/20 12:54:27;;;;;;;15.23;2.55;;;4.20;99.90;;;;;;5057566;28;20171;-66
2022/01/20 12:57:13;;;;;;;13.57;2.22;;;4.30;99.90;;;;;;5062078;28;20045;-66
2022/01/20 12:59:45;;;;;;;13.50;2.33;;;4.40;99.90;;;;;;5058324;28;20060;-66
2022/01/20 13:02:19;;;;;;;12.63;2.05;;;4.50;99.90;;;;;;5061158;28;20060;-66
2022/01/20 13:04:45;;;;;;;16.58;2.28;;;4.60;99.90;;;;;;5059264;28;20055;-66
2022/01/20 13:07:15;;;;;;;11.93;1.92;;;4.70;99.90;;;;;;5060778;28;20116;-66
2022/01/20 13:10:13;;;;;;;15.93;2.47;;;4.90;99.90;;;;;;5062235;28;20041;-66
2022/01/20 13:12:41;;;;;;;14.93;2.95;;;4.90;99.90;;;;;;5060795;28;20049;-66
2022/01/20 13:15:16;;;;;;;10.65;2.38;;;5.00;99.90;;;;;;5064643;28;20523;-67
2022/01/20 13:17:42;;;;;;;12.05;2.35;;;4.90;99.10;;;;;;5056653;28;20056;-66
2022/01/20 13:20:23;;;;;;;14.63;2.10;;;4.90;99.80;;;;;;5064025;28;20040;-66
2022/01/20 13:25:48;;;;;;;10.70;1.75;;;4.30;99.90;;;;;;5062325;28;20053;-66
2022/01/20 13:28:16;;;;;;;7.43;1.48;;;4.00;99.90;;;;;;5066721;28;20178;-66
2022/01/20 13:30:47;;;;;;;10.18;1.38;;;3.90;99.90;;;;;;5065683;28;20044;-66
2022/01/20 13:33:19;;;;;;;10.57;2.25;;;3.70;99.90;;;;;;5062594;28;20036;-66
2022/01/20 13:35:47;;;;;;;11.45;1.75;;;3.60;99.90;;;;;;5059467;28;20393;-66
2022/01/20 13:38:14;;;;;;;13.35;2.38;;;3.50;99.90;;;;;;5060450;28;20044;-66
2022/01/20 13:40:46;;;;;;;14.10;2.20;;;3.60;99.90;;;;;;5058123;28;20405;-67
2022/01/20 13:46:00;;;;;;;10.98;1.60;;;4.10;99.90;;;;;;5060691;28;20562;-67
2022/01/20 13:48:35;;;;;;;15.48;2.30;;;4.30;99.90;;;;;;5064496;28;20037;-67
2022/01/20 13:51:03;;;;;;;17.08;2.72;;;4.50;99.90;;;;;;5065784;28;20037;-67
2022/01/20 13:53:31;;;;;;;13.32;2.20;;;4.70;99.90;;;;;;5068195;28;20048;-67
2022/01/20 13:56:00;;;;;;;13.30;2.47;;;4.80;99.90;;;;;;5064789;28;20033;-67
2022/01/20 13:58:28;;;;;;;14.02;2.38;;;4.80;99.90;;;;;;5064599;28;20048;-67
2022/01/20 14:00:56;;;;;;;14.25;2.05;;;4.70;99.90;;;;;;5062901;28;20425;-67
2022/01/20 14:03:23;;;;;;;11.35;1.70;;;4.70;99.90;;;;;;5065154;28;20070;-67
2022/01/20 14:05:50;;;;;;;9.63;1.92;;;4.70;99.90;;;;;;5062869;28;20516;-67
2022/01/20 14:08:18;;;;;;;15.98;1.90;;;4.60;99.90;;;;;;5061606;28;20128;-67
2022/01/20 14:10:44;;;;;;;11.73;2.13;;;4.40;99.90;;;;;;5058554;28;20090;-67